Time;durP1;ratioP1;P1;durP2;ratioP2;P2;SDS_P1;SDS_P2;PMS_P1;PMS_P2;Temp;Humidity;BMP_temperature;BMP_pressure;BME280_temperature;BME280_humidity;BME280_pressure;Samples;Min_cycle;Max_cycle;Signal;HPM_P1;HPM_P2
2021/04/30 00:01:37;;;;;;;8.03;7.33;;;11.10;1.00;;;;;;5072243;28;20264;-55
2021/04/30 00:04:03;;;;;;;8.60;7.80;;;11.10;1.00;;;;;;5069735;28;20190;-53
2021/04/30 00:06:29;;;;;;;8.87;8.00;;;11.10;1.00;;;;;;5066362;28;20585;-55
2021/04/30 00:08:54;;;;;;;9.30;7.93;;;11.10;1.00;;;;;;5069718;28;20474;-54
2021/04/30 00:11:20;;;;;;;8.40;7.60;;;11.00;1.00;;;;;;5066836;28;20189;-54
2021/04/30 00:13:45;;;;;;;8.67;7.90;;;11.00;1.00;;;;;;5073340;28;20190;-54
2021/04/30 00:16:11;;;;;;;7.93;7.13;;;10.90;1.00;;;;;;5070188;28;20187;-55
2021/04/30 00:18:37;;;;;;;8.93;7.83;;;11.00;1.00;;;;;;5067225;28;20199;-55
2021/04/30 00:21:03;;;;;;;9.53;8.43;;;;;;;;;;5071592;28;20257;-54
2021/04/30 00:23:31;;;;;;;8.73;7.87;;;10.90;1.00;;;;;;5071799;28;20174;-54
2021/04/30 00:25:59;;;;;;;14.33;8.33;;;11.00;1.00;;;;;;5073251;28;20444;-53
2021/04/30 00:28:25;;;;;;;8.13;7.33;;;10.90;1.00;;;;;;5070702;28;20448;-56
2021/04/30 00:30:52;;;;;;;11.83;7.60;;;10.80;1.00;;;;;;5072237;28;20535;-56
2021/04/30 00:33:18;;;;;;;10.07;9.10;;;10.80;1.00;;;;;;5073353;28;21654;-54
2021/04/30 00:35:44;;;;;;;9.30;8.00;;;10.80;1.00;;;;;;5074080;28;20455;-55
2021/04/30 00:38:10;;;;;;;9.20;8.30;;;10.80;1.00;;;;;;5069392;28;20445;-55
2021/04/30 00:40:37;;;;;;;9.73;8.93;;;10.70;1.00;;;;;;5072045;28;20641;-53
2021/04/30 00:43:02;;;;;;;9.80;8.90;;;10.80;1.00;;;;;;5067049;28;20550;-54
2021/04/30 00:45:28;;;;;;;9.53;8.53;;;10.80;1.00;;;;;;5071184;28;20875;-54
2021/04/30 00:47:54;;;;;;;10.57;9.47;;;10.70;1.00;;;;;;5072771;28;20436;-55
2021/04/30 00:50:23;;;;;;;10.93;9.70;;;10.70;1.00;;;;;;5070504;28;20243;-54
2021/04/30 00:52:48;;;;;;;10.30;9.30;;;10.70;1.00;;;;;;5068214;28;20558;-54
2021/04/30 00:55:16;;;;;;;10.57;9.47;;;10.30;1.00;;;;;;5067427;28;20543;-55
2021/04/30 00:57:47;;;;;;;12.00;10.00;;;10.60;1.00;;;;;;5071122;28;20187;-54
2021/04/30 01:00:14;;;;;;;11.23;9.83;;;10.50;1.00;;;;;;5069047;28;20948;-55
2021/04/30 01:02:40;;;;;;;11.20;9.70;;;10.50;1.00;;;;;;5071413;28;20455;-55
2021/04/30 01:05:07;;;;;;;10.53;9.27;;;10.60;1.00;;;;;;5071539;28;20501;-55
2021/04/30 01:07:33;;;;;;;10.10;9.10;;;10.60;1.00;;;;;;5070170;28;20538;-54
2021/04/30 01:09:59;;;;;;;11.87;9.80;;;10.60;1.00;;;;;;5068783;28;20803;-55
2021/04/30 01:12:25;;;;;;;10.87;9.40;;;10.60;1.00;;;;;;5069884;28;20449;-54
2021/04/30 01:14:51;;;;;;;10.37;9.33;;;10.60;1.00;;;;;;5077394;28;20190;-53
2021/04/30 01:17:17;;;;;;;10.73;9.63;;;10.70;1.00;;;;;;5070258;28;20489;-54
2021/04/30 01:19:43;;;;;;;11.70;10.30;;;10.70;1.00;;;;;;5069123;28;20485;-54
2021/04/30 01:22:09;;;;;;;10.80;9.70;;;10.70;1.00;;;;;;5071035;28;20209;-54
2021/04/30 01:24:35;;;;;;;11.47;10.17;;;10.60;1.00;;;;;;5070450;28;20937;-54
2021/04/30 01:27:01;;;;;;;11.63;10.43;;;10.50;1.00;;;;;;5070362;28;20440;-54
2021/04/30 01:29:26;;;;;;;11.73;9.80;;;10.50;1.00;;;;;;5071756;28;20218;-56
2021/04/30 01:31:52;;;;;;;11.10;9.37;;;10.40;1.00;;;;;;5070970;28;20445;-55
2021/04/30 01:34:17;;;;;;;11.30;10.10;;;10.40;1.00;;;;;;5068207;28;20276;-54
2021/04/30 01:36:43;;;;;;;10.40;9.40;;;10.40;1.00;;;;;;5068418;28;20186;-54
2021/04/30 01:39:13;;;;;;;13.40;10.40;;;10.40;1.00;;;;;;5070046;28;20227;-54
2021/04/30 01:41:40;;;;;;;10.70;9.60;;;7.30;1.00;;;;;;5070142;28;20889;-55
2021/04/30 01:44:08;;;;;;;11.27;10.07;;;10.40;1.00;;;;;;5071654;28;20466;-55
2021/04/30 01:46:34;;;;;;;11.10;9.90;;;10.40;1.00;;;;;;5069644;28;20440;-54
2021/04/30 01:49:00;;;;;;;11.13;9.93;;;10.40;1.00;;;;;;5067071;28;20449;-56
2021/04/30 01:51:25;;;;;;;12.00;10.77;;;10.30;1.00;;;;;;5067764;28;20447;-55
2021/04/30 01:53:52;;;;;;;12.60;11.30;;;10.30;1.00;;;;;;5071171;28;20186;-54
2021/04/30 01:56:18;;;;;;;11.83;10.60;;;10.30;1.00;;;;;;5062598;28;20526;-55
2021/04/30 01:58:44;;;;;;;12.27;10.97;;;10.20;1.00;;;;;;5068376;28;20443;-55
2021/04/30 02:01:11;;;;;;;13.27;11.87;;;9.90;1.00;;;;;;5054077;28;20205;-55
2021/04/30 02:03:36;;;;;;;12.00;10.80;;;10.20;1.00;;;;;;5069766;28;20178;-54
2021/04/30 02:06:03;;;;;;;11.90;10.50;;;10.20;1.00;;;;;;5057569;28;20456;-54
2021/04/30 02:08:29;;;;;;;11.23;10.13;;;10.20;1.00;;;;;;5065606;28;20470;-54
2021/04/30 02:10:54;;;;;;;12.77;11.47;;;10.10;1.00;;;;;;5070340;28;20945;-54
2021/04/30 02:13:22;;;;;;;13.20;10.80;;;10.00;1.00;;;;;;5069065;28;20185;-54
2021/04/30 02:15:49;;;;;;;12.00;10.80;;;10.10;1.00;;;;;;5068472;28;20173;-55
2021/04/30 02:18:15;;;;;;;14.00;10.30;;;10.00;1.00;;;;;;5070976;28;20451;-54
2021/04/30 02:20:42;;;;;;;13.80;10.90;;;10.00;1.00;;;;;;5069936;28;20437;-54
2021/04/30 02:23:08;;;;;;;13.13;9.83;;;10.00;1.00;;;;;;5069482;28;20211;-53
2021/04/30 02:25:34;;;;;;;12.83;11.53;;;10.00;1.00;;;;;;5071077;28;20452;-54
2021/04/30 02:28:02;;;;;;;12.83;11.53;;;9.90;1.00;;;;;;5067556;28;20464;-54
2021/04/30 02:30:30;;;;;;;12.17;10.23;;;9.90;1.00;;;;;;5078825;28;20223;-55
2021/04/30 02:32:57;;;;;;;14.00;11.40;;;9.90;1.00;;;;;;5089844;28;20435;-54
2021/04/30 02:35:34;;;;;;;11.67;10.47;;;9.80;1.00;;;;;;5069878;28;20452;-55
2021/04/30 02:38:00;;;;;;;11.93;10.60;;;9.80;1.00;;;;;;5068691;28;20447;-56
2021/04/30 02:40:28;;;;;;;11.83;10.60;;;9.80;1.00;;;;;;5066571;28;20475;-53
2021/04/30 02:42:56;;;;;;;11.57;10.47;;;9.80;1.00;;;;;;5067244;28;20477;-53
2021/04/30 02:45:22;;;;;;;11.97;10.77;;;;;;;;;;5070426;28;20447;-54
2021/04/30 02:47:50;;;;;;;11.80;10.40;;;9.80;1.00;;;;;;5066354;28;20454;-54
2021/04/30 02:50:22;;;;;;;12.03;10.47;;;9.70;1.00;;;;;;5064896;28;21021;-54
2021/04/30 02:52:48;;;;;;;11.50;10.00;;;9.70;1.00;;;;;;5070384;28;20447;-55
2021/04/30 02:55:16;;;;;;;12.33;11.03;;;9.70;1.00;;;;;;5077489;28;20461;-53
2021/04/30 02:57:42;;;;;;;11.80;10.60;;;9.60;1.00;;;;;;5070382;28;21002;-53
2021/04/30 03:00:10;;;;;;;11.13;9.77;;;9.60;1.00;;;;;;5068886;28;20451;-53
2021/04/30 03:02:36;;;;;;;11.50;10.13;;;9.60;1.00;;;;;;5068356;28;20679;-54
2021/04/30 03:05:01;;;;;;;11.20;9.30;;;9.60;1.00;;;;;;5066659;28;20528;-53
2021/04/30 03:07:27;;;;;;;15.37;10.73;;;9.70;1.00;;;;;;5082633;28;20185;-55
2021/04/30 03:09:52;;;;;;;10.90;9.43;;;9.70;1.00;;;;;;5066574;28;20190;-56
2021/04/30 03:12:19;;;;;;;11.90;10.73;;;9.60;1.00;;;;;;5068967;28;20181;-54
2021/04/30 03:14:45;;;;;;;12.13;9.40;;;9.70;1.00;;;;;;5069481;28;20830;-54
2021/04/30 03:17:10;;;;;;;10.70;9.70;;;9.70;1.00;;;;;;5069183;28;20734;-55
2021/04/30 03:19:36;;;;;;;10.47;9.40;;;9.70;1.00;;;;;;5066920;28;20241;-54
2021/04/30 03:22:01;;;;;;;11.23;10.00;;;9.70;1.00;;;;;;5070518;28;20227;-55
2021/04/30 03:24:27;;;;;;;11.90;9.53;;;9.80;1.00;;;;;;5070214;28;20270;-55
2021/04/30 03:26:53;;;;;;;11.10;10.00;;;9.60;1.00;;;;;;5068713;28;20193;-54
2021/04/30 03:29:19;;;;;;;12.20;10.37;;;9.60;1.00;;;;;;5070035;28;20217;-55
2021/04/30 03:31:44;;;;;;;11.23;10.03;;;9.60;1.00;;;;;;5067915;28;20229;-54
2021/04/30 03:34:10;;;;;;;10.63;9.53;;;9.60;1.00;;;;;;5068229;28;20447;-55
2021/04/30 03:36:37;;;;;;;11.77;10.57;;;9.60;1.00;;;;;;5069070;28;20619;-56
2021/04/30 03:39:04;;;;;;;11.13;10.03;;;9.60;1.00;;;;;;5072148;28;20802;-54
2021/04/30 03:41:29;;;;;;;11.43;10.23;;;9.70;1.00;;;;;;5072271;28;20484;-56
2021/04/30 03:43:55;;;;;;;14.73;11.00;;;9.60;1.00;;;;;;5070353;28;20920;-55
2021/04/30 03:46:21;;;;;;;12.50;10.57;;;9.60;1.00;;;;;;5072798;28;20180;-55
2021/04/30 03:48:46;;;;;;;15.43;10.23;;;9.50;1.00;;;;;;5073202;28;20209;-54
2021/04/30 03:51:12;;;;;;;12.20;10.90;;;9.50;1.00;;;;;;5071540;28;20184;-53
2021/04/30 03:53:37;;;;;;;12.63;10.80;;;9.60;1.00;;;;;;5074060;28;20193;-54
2021/04/30 03:56:03;;;;;;;14.77;10.90;;;9.50;1.00;;;;;;5072953;28;20241;-56
2021/04/30 03:58:29;;;;;;;11.40;10.23;;;9.60;1.00;;;;;;5071888;28;20222;-55
2021/04/30 04:00:54;;;;;;;11.00;9.90;;;9.60;1.00;;;;;;5072289;28;20823;-55
2021/04/30 04:03:20;;;;;;;12.10;10.90;;;11.40;1.00;;;;;;5070314;28;20268;-55
2021/04/30 04:05:45;;;;;;;13.67;10.63;;;9.60;1.00;;;;;;5071417;28;21518;-55
2021/04/30 04:08:11;;;;;;;12.07;10.77;;;9.50;1.00;;;;;;5073397;28;20185;-54
2021/04/30 04:10:37;;;;;;;12.17;10.20;;;9.50;1.00;;;;;;5072442;28;20190;-54
2021/04/30 04:13:17;;;;;;;16.30;11.70;;;9.50;1.00;;;;;;5069936;28;20200;-56
2021/04/30 04:15:44;;;;;;;12.40;10.40;;;9.40;1.00;;;;;;5073306;28;20193;-55
2021/04/30 04:18:10;;;;;;;13.50;11.50;;;9.40;1.00;;;;;;5072060;28;20477;-55
2021/04/30 04:20:35;;;;;;;16.67;11.20;;;9.40;1.00;;;;;;5068953;28;20509;-54
2021/04/30 04:23:02;;;;;;;14.67;11.73;;;9.50;1.00;;;;;;5088911;28;20689;-55
2021/04/30 04:25:27;;;;;;;13.20;11.03;;;9.50;1.00;;;;;;5071935;28;20190;-55
2021/04/30 04:27:53;;;;;;;14.70;10.80;;;;;;;;;;5091631;28;20967;-55
2021/04/30 04:30:19;;;;;;;13.23;11.40;;;9.50;1.00;;;;;;5080610;28;20296;-54
2021/04/30 04:32:45;;;;;;;15.33;12.07;;;9.40;1.00;;;;;;5071220;28;20471;-56
2021/04/30 04:35:11;;;;;;;15.30;11.80;;;9.50;1.00;;;;;;5069593;28;20193;-55
2021/04/30 04:37:36;;;;;;;13.33;11.47;;;9.50;1.00;;;;;;5068942;28;20277;-54
2021/04/30 04:40:03;;;;;;;13.63;11.30;;;9.50;1.00;;;;;;5072217;28;20584;-54
2021/04/30 04:42:29;;;;;;;14.57;12.23;;;9.50;1.00;;;;;;5072210;28;20757;-54
2021/04/30 04:44:55;;;;;;;14.47;11.87;;;9.40;1.00;;;;;;5071388;28;20535;-55
2021/04/30 04:47:21;;;;;;;14.90;12.30;;;9.50;1.00;;;;;;5067482;28;20180;-56
2021/04/30 04:49:46;;;;;;;12.07;10.77;;;9.50;1.00;;;;;;5070094;28;20550;-55
2021/04/30 04:52:12;;;;;;;16.33;12.90;;;9.60;1.00;;;;;;5070343;28;20454;-57
2021/04/30 04:54:37;;;;;;;13.53;12.13;;;9.60;1.00;;;;;;5071260;28;20207;-56
2021/04/30 04:57:03;;;;;;;13.73;12.30;;;9.50;1.00;;;;;;5072418;28;20184;-54
2021/04/30 04:59:29;;;;;;;13.93;11.50;;;9.60;1.00;;;;;;5072467;28;20190;-54
2021/04/30 05:01:54;;;;;;;14.33;12.83;;;9.60;1.00;;;;;;5074231;28;20471;-57
2021/04/30 05:04:20;;;;;;;14.33;12.23;;;9.80;1.00;;;;;;5070792;28;20197;-56
2021/04/30 05:06:46;;;;;;;12.60;11.23;;;;;;;;;;5075973;28;20216;-55
2021/04/30 05:09:12;;;;;;;14.87;13.27;;;9.80;1.00;;;;;;5070537;28;20440;-54
2021/04/30 05:11:37;;;;;;;15.47;12.40;;;9.70;1.00;;;;;;5070855;28;20451;-55
2021/04/30 05:14:04;;;;;;;16.27;11.33;;;9.70;1.00;;;;;;5070162;28;20286;-55
2021/04/30 05:16:29;;;;;;;15.63;12.27;;;9.80;1.00;;;;;;5070808;28;20204;-56
2021/04/30 05:18:55;;;;;;;14.07;12.57;;;9.70;1.00;;;;;;5071096;28;20531;-54
2021/04/30 05:21:20;;;;;;;14.77;13.07;;;13.30;1.00;;;;;;5070248;28;20278;-55
2021/04/30 05:23:46;;;;;;;15.47;13.87;;;9.90;1.00;;;;;;5070913;28;20195;-54
2021/04/30 05:26:12;;;;;;;17.50;12.57;;;9.90;1.00;;;;;;5071507;28;20210;-54
2021/04/30 05:28:37;;;;;;;15.63;13.90;;;10.00;1.00;;;;;;5068666;28;20447;-55
2021/04/30 05:31:03;;;;;;;14.10;12.63;;;10.00;1.00;;;;;;5069836;28;20189;-54
2021/04/30 05:33:28;;;;;;;13.17;11.87;;;10.20;1.00;;;;;;5071687;28;20527;-55
2021/04/30 05:35:54;;;;;;;12.87;11.47;;;10.10;1.00;;;;;;5069380;28;20634;-54
2021/04/30 05:38:20;;;;;;;12.63;11.33;;;10.10;1.00;;;;;;5068189;28;20645;-55
2021/04/30 05:40:46;;;;;;;17.10;13.43;;;10.20;1.00;;;;;;5067493;28;20650;-56
2021/04/30 05:43:12;;;;;;;19.17;13.80;;;10.20;1.00;;;;;;5069796;28;20210;-54
2021/04/30 05:45:44;;;;;;;15.30;13.03;;;10.20;1.00;;;;;;5068948;28;20459;-56
2021/04/30 05:48:10;;;;;;;14.73;13.00;;;10.50;1.00;;;;;;5069687;28;20178;-54
2021/04/30 05:50:35;;;;;;;14.10;12.67;;;10.60;1.00;;;;;;5065727;28;20438;-54
2021/04/30 05:53:01;;;;;;;14.13;12.63;;;10.60;1.00;;;;;;5067073;28;20807;-54
2021/04/30 05:55:28;;;;;;;15.30;13.50;;;10.70;1.00;;;;;;5066465;28;20644;-53
2021/04/30 05:57:54;;;;;;;12.90;11.30;;;10.70;1.00;;;;;;5070304;28;21636;-54
2021/04/30 06:00:20;;;;;;;20.60;14.70;;;10.70;1.00;;;;;;5068481;28;20934;-55
2021/04/30 06:02:46;;;;;;;14.20;12.23;;;10.70;1.00;;;;;;5069544;28;20241;-54
2021/04/30 06:05:11;;;;;;;14.03;12.37;;;10.70;1.00;;;;;;5070082;28;20502;-54
2021/04/30 06:07:37;;;;;;;14.33;12.80;;;10.80;1.00;;;;;;5069147;28;20668;-55
2021/04/30 06:10:04;;;;;;;14.30;12.87;;;10.50;1.00;;;;;;5068566;28;20435;-55
2021/04/30 06:12:30;;;;;;;15.53;13.27;;;10.50;1.00;;;;;;5069329;28;20248;-54
2021/04/30 06:14:56;;;;;;;13.73;12.33;;;;;;;;;;5069846;28;20444;-55
2021/04/30 06:17:22;;;;;;;15.00;12.97;;;10.50;1.00;;;;;;5070567;28;20191;-55
2021/04/30 06:19:47;;;;;;;13.87;11.93;;;10.60;1.00;;;;;;5068346;28;20431;-54
2021/04/30 06:22:13;;;;;;;13.93;11.73;;;10.50;1.00;;;;;;5070259;28;20268;-54
2021/04/30 06:24:39;;;;;;;16.30;12.27;;;10.40;1.00;;;;;;5068478;28;20199;-56
2021/04/30 06:27:05;;;;;;;13.73;12.20;;;10.30;1.00;;;;;;5065810;28;20719;-55
2021/04/30 06:29:31;;;;;;;14.33;12.30;;;10.40;1.00;;;;;;5073037;28;20316;-54
2021/04/30 06:31:56;;;;;;;14.33;12.53;;;10.50;1.00;;;;;;5074430;28;20186;-56
2021/04/30 06:34:25;;;;;;;13.03;11.70;;;10.50;1.00;;;;;;5074176;28;20587;-56
2021/04/30 06:36:51;;;;;;;16.83;11.77;;;10.50;1.00;;;;;;5069511;28;20538;-56
2021/04/30 06:39:16;;;;;;;12.80;11.40;;;10.60;1.00;;;;;;5067000;28;20540;-54
2021/04/30 06:41:42;;;;;;;14.67;13.10;;;10.80;1.00;;;;;;5069548;28;21078;-56
2021/04/30 06:44:07;;;;;;;13.60;12.20;;;10.70;1.00;;;;;;5068169;28;20222;-56
2021/04/30 06:46:33;;;;;;;13.60;12.20;;;10.80;1.00;;;;;;5069879;28;20683;-56
2021/04/30 06:48:59;;;;;;;13.60;12.20;;;10.90;1.00;;;;;;5068997;28;20210;-55
2021/04/30 06:51:24;;;;;;;14.23;11.53;;;10.90;1.00;;;;;;5067186;28;20280;-54
2021/04/30 06:53:50;;;;;;;12.63;11.33;;;11.00;1.00;;;;;;5070271;28;20190;-55
2021/04/30 06:56:15;;;;;;;13.53;12.13;;;11.30;1.00;;;;;;5069189;28;20190;-55
2021/04/30 06:58:41;;;;;;;13.97;12.23;;;11.50;1.00;;;;;;5068271;28;20279;-55
2021/04/30 07:01:10;;;;;;;13.47;12.00;;;11.50;1.00;;;;;;5067595;28;20175;-55
2021/04/30 07:03:36;;;;;;;13.13;11.07;;;11.40;1.00;;;;;;5070026;28;20194;-56
2021/04/30 07:06:03;;;;;;;14.90;12.80;;;11.60;1.00;;;;;;5066897;28;20443;-54
2021/04/30 07:08:29;;;;;;;13.80;12.43;;;11.90;1.00;;;;;;5068199;28;20441;-56
2021/04/30 07:10:54;;;;;;;12.63;11.33;;;11.90;1.00;;;;;;5069203;28;20440;-55
2021/04/30 07:13:20;;;;;;;15.93;11.70;;;11.70;1.00;;;;;;5067642;28;20846;-55
2021/04/30 07:15:45;;;;;;;13.43;12.07;;;11.60;1.00;;;;;;5069614;28;20254;-55
2021/04/30 07:18:11;;;;;;;14.17;11.87;;;11.50;1.00;;;;;;5069991;28;20186;-54
2021/04/30 07:20:37;;;;;;;13.50;12.10;;;11.40;1.00;;;;;;5068173;28;20212;-56
2021/04/30 07:23:03;;;;;;;16.70;11.40;;;11.60;1.00;;;;;;5065827;28;20205;-56
2021/04/30 07:25:30;;;;;;;12.33;11.00;;;11.90;1.00;;;;;;5066631;28;20183;-56
2021/04/30 07:27:56;;;;;;;20.50;12.30;;;12.20;1.00;;;;;;5067767;28;20997;-55
2021/04/30 07:30:22;;;;;;;12.97;11.40;;;12.30;1.00;;;;;;5069453;28;20512;-54
2021/04/30 07:32:48;;;;;;;11.17;10.07;;;12.00;1.00;;;;;;5069359;28;20473;-54
2021/04/30 07:35:14;;;;;;;12.60;11.13;;;11.80;1.00;;;;;;5067539;28;20484;-56
2021/04/30 07:37:39;;;;;;;14.90;10.60;;;12.00;1.00;;;;;;5067789;28;20569;-53
2021/04/30 07:40:07;;;;;;;15.70;11.43;;;12.10;1.00;;;;;;5065709;28;20272;-53
2021/04/30 07:42:33;;;;;;;13.60;12.13;;;12.20;1.00;;;;;;5068295;28;20743;-55
2021/04/30 07:44:58;;;;;;;12.97;11.63;;;12.10;1.00;;;;;;5072165;28;20545;-54
2021/04/30 07:47:24;;;;;;;13.30;11.67;;;12.10;1.00;;;;;;5069619;28;20194;-54
2021/04/30 07:49:49;;;;;;;14.07;12.60;;;12.40;1.00;;;;;;5068656;28;20183;-55
2021/04/30 07:52:15;;;;;;;14.27;10.40;;;12.70;1.00;;;;;;5069791;28;20194;-54
2021/04/30 07:54:40;;;;;;;13.77;12.47;;;13.10;1.00;;;;;;5066835;28;20562;-55
2021/04/30 07:57:07;;;;;;;13.40;11.60;;;13.20;1.00;;;;;;5050880;28;20195;-54
2021/04/30 07:59:32;;;;;;;12.87;11.40;;;13.00;1.00;;;;;;5069928;28;20218;-55
2021/04/30 08:01:59;;;;;;;12.10;10.80;;;12.70;1.00;;;;;;5089732;28;20534;-55
2021/04/30 08:04:24;;;;;;;14.00;11.43;;;12.30;1.00;;;;;;5067019;28;20183;-56
2021/04/30 08:06:50;;;;;;;13.00;11.60;;;12.50;1.00;;;;;;5068521;28;20437;-55
2021/04/30 08:09:16;;;;;;;16.50;12.53;;;;;;;;;;5064422;28;20191;-54
2021/04/30 08:11:42;;;;;;;13.50;12.20;;;13.10;1.00;;;;;;5068286;28;20582;-54
2021/04/30 08:14:08;;;;;;;13.87;11.97;;;13.00;1.00;;;;;;5069610;28;20443;-55
2021/04/30 08:16:35;;;;;;;14.97;13.40;;;12.70;1.00;;;;;;5067889;28;20202;-54
2021/04/30 08:19:01;;;;;;;15.43;12.20;;;12.50;1.00;;;;;;5069329;28;20826;-55
2021/04/30 08:21:28;;;;;;;13.20;11.60;;;12.80;1.00;;;;;;5071522;28;20480;-54
2021/04/30 08:23:54;;;;;;;12.80;11.30;;;12.70;1.00;;;;;;5074171;28;20437;-59
2021/04/30 08:26:20;;;;;;;13.40;12.10;;;12.60;1.00;;;;;;5078654;28;20539;-58
2021/04/30 08:28:45;;;;;;;14.20;12.70;;;12.30;1.00;;;;;;5085242;28;20206;-58
2021/04/30 08:31:11;;;;;;;14.30;12.43;;;12.40;1.00;;;;;;5081025;28;20444;-59
2021/04/30 08:33:37;;;;;;;15.37;12.60;;;12.60;1.00;;;;;;5073767;28;20185;-59
2021/04/30 08:36:03;;;;;;;13.60;12.20;;;12.70;1.00;;;;;;5085995;28;20181;-59
2021/04/30 08:38:28;;;;;;;12.87;11.50;;;13.00;1.00;;;;;;5078238;28;20205;-60
2021/04/30 08:40:56;;;;;;;15.63;13.70;;;13.00;1.00;;;;;;5072879;28;20962;-59
2021/04/30 08:43:22;;;;;;;14.23;12.73;;;13.20;1.00;;;;;;5077378;28;20206;-60
2021/04/30 08:45:47;;;;;;;14.30;12.27;;;13.10;1.00;;;;;;5070590;28;20445;-59
2021/04/30 08:48:14;;;;;;;13.40;12.00;;;13.10;1.00;;;;;;5080592;28;20224;-57
2021/04/30 08:50:44;;;;;;;14.23;12.63;;;13.20;1.00;;;;;;5074029;28;20182;-57
2021/04/30 08:53:10;;;;;;;14.80;13.17;;;13.30;1.00;;;;;;5072910;28;20433;-58
2021/04/30 08:55:36;;;;;;;13.73;12.40;;;13.80;1.00;;;;;;5081454;28;20990;-59
2021/04/30 08:58:05;;;;;;;14.50;13.00;;;13.70;1.00;;;;;;5085406;28;20473;-60
2021/04/30 09:00:31;;;;;;;13.80;12.20;;;13.80;1.00;;;;;;5083595;28;20206;-58
2021/04/30 09:02:56;;;;;;;17.07;12.80;;;13.90;1.00;;;;;;5079461;28;20499;-60
2021/04/30 09:05:25;;;;;;;17.60;13.83;;;14.10;1.00;;;;;;5086964;28;20628;-59
2021/04/30 09:07:54;;;;;;;15.40;13.87;;;13.90;1.00;;;;;;5080927;28;20522;-59
2021/04/30 09:10:20;;;;;;;14.27;12.77;;;13.70;1.00;;;;;;5074699;28;20429;-59
2021/04/30 09:13:05;;;;;;;14.67;13.17;;;13.90;1.00;;;;;;5076988;28;20441;-58
2021/04/30 09:15:30;;;;;;;15.63;13.37;;;14.10;1.00;;;;;;5088542;28;20282;-58
2021/04/30 09:18:17;;;;;;;13.53;12.10;;;14.20;1.00;;;;;;5075000;28;20485;-59
2021/04/30 09:20:44;;;;;;;11.83;10.63;;;14.30;1.00;;;;;;5072227;28;20263;-59
2021/04/30 09:23:32;;;;;;;14.17;12.70;;;14.30;1.00;;;;;;5086198;28;20945;-60
2021/04/30 09:25:58;;;;;;;12.83;11.63;;;14.30;1.00;;;;;;5088685;28;20528;-57
2021/04/30 09:28:25;;;;;;;14.83;13.43;;;14.40;1.00;;;;;;5070568;28;20957;-59
2021/04/30 09:30:52;;;;;;;13.70;12.43;;;14.60;1.00;;;;;;5074473;28;20451;-58
2021/04/30 09:33:24;;;;;;;13.57;12.00;;;14.90;1.00;;;;;;5070955;28;20579;-59
2021/04/30 09:35:55;;;;;;;13.40;12.10;;;15.00;1.00;;;;;;5080269;28;20430;-58
2021/04/30 09:38:21;;;;;;;13.63;12.23;;;15.00;1.00;;;;;;5070775;28;20445;-60
2021/04/30 09:40:48;;;;;;;12.70;11.50;;;14.70;1.00;;;;;;5070073;28;20473;-59
2021/04/30 09:43:15;;;;;;;14.33;12.83;;;14.50;1.00;;;;;;5074406;28;20457;-58
2021/04/30 09:45:42;;;;;;;12.60;11.40;;;14.40;1.00;;;;;;5069606;28;20969;-58
2021/04/30 09:48:10;;;;;;;14.40;11.87;;;14.30;1.00;;;;;;5074980;28;20445;-58
2021/04/30 09:50:36;;;;;;;13.13;11.83;;;14.70;1.00;;;;;;5074257;28;20433;-60
2021/04/30 09:53:07;;;;;;;13.37;11.50;;;15.20;1.00;;;;;;5071889;28;21040;-58
2021/04/30 09:55:51;;;;;;;13.40;12.00;;;15.70;1.00;;;;;;5076149;28;20447;-59
2021/04/30 09:58:25;;;;;;;13.17;11.97;;;16.20;1.00;;;;;;5071906;28;20442;-59
2021/04/30 10:00:52;;;;;;;13.30;12.00;;;16.20;1.00;;;;;;5067573;28;20530;-59
2021/04/30 10:03:22;;;;;;;13.50;12.20;;;15.80;1.00;;;;;;5080768;28;21026;-58
2021/04/30 10:06:10;;;;;;;14.90;13.40;;;15.40;1.00;;;;;;5082470;28;20478;-59
2021/04/30 10:08:36;;;;;;;15.00;13.60;;;15.40;1.00;;;;;;5080681;28;20444;-59
2021/04/30 10:11:03;;;;;;;13.83;12.50;;;15.10;1.00;;;;;;5071141;28;20445;-57
2021/04/30 10:13:29;;;;;;;14.20;12.90;;;15.10;1.00;;;;;;5078534;28;20491;-59
2021/04/30 10:15:55;;;;;;;13.47;12.27;;;15.10;1.00;;;;;;5090992;28;20933;-60
2021/04/30 10:18:20;;;;;;;12.70;11.37;;;15.00;1.00;;;;;;5082906;28;20453;-60
2021/04/30 10:20:47;;;;;;;13.33;12.03;;;15.00;1.00;;;;;;5070149;28;20180;-60
2021/04/30 10:23:19;;;;;;;14.90;13.53;;;15.30;1.00;;;;;;5070592;28;20199;-59
2021/04/30 10:25:49;;;;;;;12.27;11.17;;;15.60;1.00;;;;;;5087615;28;20436;-59
2021/04/30 10:28:28;;;;;;;13.10;11.90;;;18.50;1.00;;;;;;5074549;28;20451;-60
2021/04/30 10:31:11;;;;;;;12.33;11.13;;;15.30;1.00;;;;;;5078153;28;20453;-57
2021/04/30 10:34:26;;;;;;;12.00;10.90;;;15.50;1.00;;;;;;5069424;28;20442;-59
2021/04/30 10:36:55;;;;;;;13.50;12.10;;;15.60;1.00;;;;;;5007207;28;20961;-59
2021/04/30 10:39:30;;;;;;;12.83;11.70;;;15.50;1.00;;;;;;5064847;28;20442;-59
2021/04/30 10:41:55;;;;;;;12.97;11.87;;;15.40;1.00;;;;;;5069997;28;20461;-59
2021/04/30 10:44:23;;;;;;;13.97;12.60;;;15.10;1.00;;;;;;5070637;28;20791;-60
2021/04/30 10:47:09;;;;;;;14.17;12.80;;;15.00;1.00;;;;;;5052292;28;20196;-58
2021/04/30 10:49:36;;;;;;;14.47;13.17;;;14.90;1.00;;;;;;5074466;28;20429;-60
2021/04/30 10:52:08;;;;;;;14.93;13.53;;;14.70;1.00;;;;;;5084319;28;20796;-58
2021/04/30 10:54:35;;;;;;;14.87;13.57;;;14.60;1.00;;;;;;5084347;28;20822;-60
2021/04/30 10:57:17;;;;;;;15.43;13.83;;;14.90;1.00;;;;;;5074167;28;20456;-58
2021/04/30 10:59:49;;;;;;;14.93;13.50;;;14.80;1.00;;;;;;5077218;28;21436;-59
2021/04/30 11:02:20;;;;;;;14.00;12.67;;;14.80;1.00;;;;;;5078791;28;20483;-59
2021/04/30 11:05:11;;;;;;;15.37;13.87;;;14.90;1.00;;;;;;5070067;28;20467;-59
2021/04/30 11:07:47;;;;;;;15.80;14.30;;;14.90;1.00;;;;;;5081994;28;20766;-59
2021/04/30 11:10:21;;;;;;;16.53;14.40;;;14.70;1.00;;;;;;5085144;28;20436;-59
2021/04/30 11:13:19;;;;;;;14.70;13.20;;;14.70;1.00;;;;;;5070009;28;20460;-60
2021/04/30 11:15:45;;;;;;;14.70;13.30;;;15.10;1.00;;;;;;5068652;28;20538;-60
2021/04/30 11:18:12;;;;;;;14.60;12.23;;;15.30;1.00;;;;;;5070752;28;20536;-60
2021/04/30 11:20:41;;;;;;;13.60;12.40;;;15.50;1.00;;;;;;5070151;28;20466;-59
2021/04/30 11:23:18;;;;;;;13.47;12.27;;;15.70;1.00;;;;;;5065503;28;20464;-59
2021/04/30 11:25:59;;;;;;;14.77;13.37;;;15.90;1.00;;;;;;5069181;28;20437;-59
2021/04/30 11:28:31;;;;;;;15.77;14.20;;;15.90;1.00;;;;;;5067484;28;20528;-59
2021/04/30 11:31:04;;;;;;;16.77;15.07;;;15.70;1.00;;;;;;5066471;28;20499;-59
2021/04/30 11:33:31;;;;;;;17.00;15.40;;;15.50;1.00;;;;;;5064505;28;20966;-59
2021/04/30 11:35:59;;;;;;;16.57;14.83;;;15.40;1.00;;;;;;5060484;28;20577;-60
2021/04/30 11:38:50;;;;;;;16.73;15.03;;;15.30;1.00;;;;;;5061817;28;20433;-58
2021/04/30 11:41:16;;;;;;;15.27;13.77;;;15.50;1.00;;;;;;5073728;28;20869;-58
2021/04/30 11:43:51;;;;;;;15.23;13.87;;;15.80;1.00;;;;;;5068813;28;20834;-59
2021/04/30 11:46:17;;;;;;;15.87;14.37;;;16.10;1.00;;;;;;5068188;28;20466;-59
2021/04/30 11:48:44;;;;;;;16.50;14.83;;;16.40;1.00;;;;;;5067388;28;20445;-60
2021/04/30 11:51:13;;;;;;;16.57;14.97;;;16.50;1.00;;;;;;5064045;28;20853;-58
2021/04/30 11:53:42;;;;;;;18.30;16.47;;;16.50;1.00;;;;;;5066847;28;20970;-59
2021/04/30 11:56:08;;;;;;;17.87;16.17;;;16.40;1.00;;;;;;5065016;28;20977;-58
2021/04/30 11:58:36;;;;;;;16.93;15.43;;;16.20;1.00;;;;;;5071259;28;20752;-58
2021/04/30 12:01:02;;;;;;;17.90;16.10;;;16.10;1.00;;;;;;5070870;28;20946;-59
2021/04/30 12:03:27;;;;;;;18.20;16.13;;;16.10;1.00;;;;;;5073048;28;20487;-58
2021/04/30 12:05:54;;;;;;;17.60;15.87;;;16.30;1.00;;;;;;5065419;28;20446;-58
2021/04/30 12:08:20;;;;;;;17.03;15.40;;;16.30;1.00;;;;;;5073206;28;20228;-57
2021/04/30 12:10:45;;;;;;;18.00;16.30;;;16.10;1.00;;;;;;5073747;28;21160;-59
2021/04/30 12:13:20;;;;;;;18.50;16.67;;;16.20;1.00;;;;;;5068556;28;20739;-59
2021/04/30 12:15:46;;;;;;;17.83;16.10;;;16.30;1.00;;;;;;5069456;28;20232;-58
2021/04/30 12:18:12;;;;;;;16.90;15.40;;;16.10;1.00;;;;;;5072570;28;20425;-57
2021/04/30 12:20:40;;;;;;;17.53;16.00;;;16.30;1.00;;;;;;5070158;28;20194;-60
2021/04/30 12:23:08;;;;;;;19.43;17.60;;;16.10;1.00;;;;;;5071154;28;20200;-58
2021/04/30 12:25:45;;;;;;;17.20;15.60;;;16.10;1.00;;;;;;5071017;28;20450;-58
2021/04/30 12:28:19;;;;;;;20.00;18.20;;;15.80;1.00;;;;;;5068755;28;20433;-59
2021/04/30 12:30:47;;;;;;;16.20;14.50;;;15.80;1.00;;;;;;5071180;28;20481;-58
2021/04/30 12:33:38;;;;;;;16.97;15.27;;;16.00;1.00;;;;;;5067585;28;20445;-60
2021/04/30 12:36:11;;;;;;;17.77;16.10;;;16.30;1.00;;;;;;5068785;28;20988;-61
2021/04/30 12:38:38;;;;;;;18.20;16.40;;;16.50;1.00;;;;;;5071192;28;20750;-58
2021/04/30 12:41:10;;;;;;;18.60;16.77;;;16.20;1.00;;;;;;5072846;28;20446;-59
2021/04/30 12:43:38;;;;;;;18.67;16.97;;;16.30;1.00;;;;;;5071372;28;20920;-59
2021/04/30 12:46:16;;;;;;;18.73;16.97;;;16.20;1.00;;;;;;5069494;28;20460;-58